Time;durP1;ratioP1;P1;durP2;ratioP2;P2;SDS_P1;SDS_P2;PMS_P1;PMS_P2;Temp;Humidity;BMP_temperature;BMP_pressure;BME280_temperature;BME280_humidity;BME280_pressure;Samples;Min_cycle;Max_cycle;Signal;HPM_P1;HPM_P2
2022/02/21 00:01:53;;;;;;;0.77;0.40;;;;;;;3.21;76.63;97037.59;6222219;28;20251;-70
2022/02/21 00:04:56;;;;;;;1.40;0.30;;;;;;;3.22;76.48;97025.41;6213835;28;20497;-70
2022/02/21 00:07:58;;;;;;;0.30;0.30;;;;;;;3.24;76.59;97018.34;6224170;28;20233;-70
2022/02/21 00:11:02;;;;;;;0.30;0.30;;;;;;;3.30;76.33;97012.72;6228412;28;20227;-71
2022/02/21 00:14:05;;;;;;;2.20;1.20;;;;;;;3.35;76.20;97018.50;6229675;28;20726;-70
2022/02/21 00:17:07;;;;;;;1.97;1.40;;;;;;;3.37;76.36;97015.81;6230430;28;20233;-71
2022/02/21 00:20:09;;;;;;;0.70;0.60;;;;;;;3.38;76.08;97005.28;6229469;28;20231;-70
2022/02/21 00:23:13;;;;;;;0.40;0.40;;;;;;;3.41;76.13;96999.03;6228049;28;20238;-71
2022/02/21 00:26:18;;;;;;;0.93;0.40;;;;;;;3.45;75.60;96987.47;6216549;28;20241;-71
2022/02/21 00:29:21;;;;;;;0.27;0.20;;;;;;;3.45;76.00;96979.66;6193593;28;20310;-70
2022/02/21 00:32:23;;;;;;;0.27;0.27;;;;;;;3.47;76.30;96976.03;6198096;28;20241;-70
2022/02/21 00:35:25;;;;;;;0.73;0.27;;;;;;;3.47;76.48;96962.13;6219488;28;20222;-70
2022/02/21 00:38:27;;;;;;;1.03;0.40;;;;;;;3.46;76.20;96950.88;6216617;28;20317;-71
2022/02/21 00:41:29;;;;;;;0.30;0.30;;;;;;;3.47;76.23;96943.88;6229549;28;20238;-70
2022/02/21 00:44:31;;;;;;;0.50;0.30;;;;;;;3.51;76.43;96935.75;6228022;28;20240;-70
2022/02/21 00:47:33;;;;;;;0.30;0.30;;;;;;;3.56;76.24;96940.69;6229145;28;20234;-70
2022/02/21 00:50:36;;;;;;;0.67;0.40;;;;;;;3.59;76.35;96927.44;6227067;28;20229;-70
2022/02/21 00:53:38;;;;;;;0.20;0.20;;;;;;;3.62;76.73;96935.06;6229443;28;20714;-70
2022/02/21 00:56:40;;;;;;;0.93;0.37;;;;;;;3.64;76.58;96927.97;6229354;28;20253;-70
2022/02/21 00:59:43;;;;;;;0.20;0.20;;;;;;;3.65;76.38;96927.03;6231699;28;20222;-70
2022/02/21 01:02:45;;;;;;;1.03;0.30;;;;;;;3.64;76.76;96915.75;6228803;28;20235;-71
2022/02/21 01:05:47;;;;;;;1.43;0.30;;;;;;;3.64;76.71;96914.94;6228721;28;20234;-70
2022/02/21 01:08:49;;;;;;;0.40;0.30;;;;;;;3.64;76.64;96913.16;6209603;28;20222;-70
2022/02/21 01:11:51;;;;;;;0.33;0.30;;;;;;;3.63;76.60;96903.66;6225116;28;20330;-70
2022/02/21 01:14:54;;;;;;;0.50;0.50;;;;;;;3.64;76.10;96902.72;6228750;28;20248;-69
2022/02/21 01:17:56;;;;;;;0.97;0.40;;;;;;;3.62;76.59;96904.59;6211274;28;20449;-72
2022/02/21 01:21:00;;;;;;;0.20;0.20;;;;;;;3.60;76.68;96908.22;6227933;28;20724;-70
2022/02/21 01:24:02;;;;;;;0.37;0.30;;;;;;;3.59;76.65;96899.56;6209889;28;20215;-71
2022/02/21 01:27:04;;;;;;;0.30;0.30;;;;;;;3.59;76.38;96902.16;6226935;28;20219;-70
2022/02/21 01:30:08;;;;;;;0.30;0.30;;;;;;;3.58;76.70;96878.81;6226750;28;20362;-71
2022/02/21 01:33:10;;;;;;;0.43;0.30;;;;;;;3.58;77.04;96877.03;6210720;28;20231;-70
2022/02/21 01:36:12;;;;;;;0.20;0.20;;;;;;;3.58;77.31;96864.00;6190463;28;20268;-70
2022/02/21 01:39:14;;;;;;;0.30;0.30;;;;;;;3.61;77.04;96849.91;6223473;28;20734;-70
2022/02/21 01:42:16;;;;;;;0.30;0.30;;;;;;;3.63;77.14;96850.63;6221875;28;20243;-70
2022/02/21 01:45:19;;;;;;;1.40;0.40;;;;;;;3.64;77.30;96847.09;6211330;28;20223;-70
2022/02/21 01:48:21;;;;;;;0.57;0.27;;;;;;;3.65;77.00;96836.56;6227195;28;20229;-71
2022/02/21 01:51:24;;;;;;;0.90;0.30;;;;;;;3.66;76.97;96824.34;6227769;28;20332;-70
2022/02/21 01:54:26;;;;;;;0.53;0.30;;;;;;;3.67;77.09;96815.59;6227084;28;20316;-71
2022/02/21 01:57:29;;;;;;;0.40;0.40;;;;;;;3.70;76.88;96808.38;6225530;28;20362;-70
2022/02/21 02:00:31;;;;;;;0.40;0.40;;;;;;;3.70;76.92;96792.72;6227974;28;20227;-69
2022/02/21 02:03:33;;;;;;;0.60;0.43;;;;;;;3.72;77.12;96779.59;6209670;28;20231;-70
2022/02/21 02:06:35;;;;;;;0.70;0.20;;;;;;;3.72;76.64;96764.75;6227835;28;20230;-70
2022/02/21 02:09:38;;;;;;;0.30;0.23;;;;;;;3.72;77.04;96750.88;6216861;28;20257;-70
2022/02/21 02:12:41;;;;;;;0.30;0.30;;;;;;;3.75;77.18;96723.75;6226687;28;20301;-72
2022/02/21 02:15:44;;;;;;;0.73;0.40;;;;;;;3.72;77.15;96707.34;6226536;28;20279;-70
2022/02/21 02:18:47;;;;;;;0.37;0.30;;;;;;;3.72;76.60;96696.94;6225541;28;20288;-70
2022/02/21 02:21:55;;;;;;;0.40;0.40;;;;;;;3.74;76.96;96693.38;6224871;28;20230;-71
2022/02/21 02:24:57;;;;;;;0.30;0.30;;;;;;;3.75;76.65;96687.22;6226827;28;20721;-70
2022/02/21 02:27:59;;;;;;;0.20;0.20;;;;;;;3.74;77.10;96691.59;6225715;28;20732;-70
2022/02/21 02:31:01;;;;;;;0.40;0.30;;;;;;;3.74;77.31;96683.78;6227958;28;20744;-71
2022/02/21 02:34:03;;;;;;;0.37;0.37;;;;;;;3.74;77.54;96688.16;6219073;28;21137;-70
2022/02/21 02:37:06;;;;;;;0.60;0.40;;;;;;;3.74;77.42;96688.16;6214210;28;20773;-70
2022/02/21 02:40:09;;;;;;;0.60;0.30;;;;;;;3.74;77.74;96675.94;6214705;28;20277;-71
2022/02/21 02:43:12;;;;;;;1.03;0.20;;;;;;;3.76;77.44;96665.41;6227222;28;20253;-70
2022/02/21 02:46:14;;;;;;;1.80;0.30;;;;;;;3.80;76.77;96672.91;6226617;28;20306;-71
2022/02/21 02:49:16;;;;;;;0.80;0.40;;;;;;;3.81;76.98;96679.78;6226735;28;20250;-71
2022/02/21 02:52:18;;;;;;;0.57;0.50;;;;;;;3.83;77.08;96674.47;6226501;28;20423;-70
2022/02/21 02:55:20;;;;;;;1.33;0.40;;;;;;;3.82;76.97;96665.81;6225607;28;20234;-70
2022/02/21 02:58:22;;;;;;;4.53;1.00;;;;;;;3.82;77.25;96671.03;6226563;28;20539;-70
2022/02/21 03:01:24;;;;;;;2.87;0.40;;;;;;;3.80;76.75;96665.06;6226781;28;20242;-70
2022/02/21 03:04:26;;;;;;;0.33;0.33;;;;;;;3.82;76.84;96664.97;6226233;28;20311;-70
2022/02/21 03:07:28;;;;;;;0.60;0.50;;;;;;;3.85;77.34;96647.34;6202995;28;20231;-70
2022/02/21 03:10:30;;;;;;;0.33;0.33;;;;;;;3.89;77.33;96648.81;6207230;28;20714;-70
2022/02/21 03:13:32;;;;;;;0.40;0.40;;;;;;;3.89;77.27;96646.19;6225838;28;20449;-70
2022/02/21 03:16:34;;;;;;;0.30;0.30;;;;;;;3.88;76.74;96641.06;6223780;28;20354;-71
2022/02/21 03:19:36;;;;;;;0.40;0.40;;;;;;;3.87;76.95;96634.19;6225031;28;20325;-70
2022/02/21 03:22:39;;;;;;;0.37;0.33;;;;;;;3.85;77.13;96629.06;6224375;28;20312;-71
2022/02/21 03:25:41;;;;;;;0.90;0.77;;;;;;;3.81;77.10;96625.00;6224358;28;20235;-70
2022/02/21 03:28:43;;;;;;;0.53;0.47;;;;;;;3.80;76.54;96609.44;6227157;28;20669;-70
2022/02/21 03:31:45;;;;;;;1.30;0.53;;;;;;;3.81;76.41;96609.34;6221041;28;20274;-70
2022/02/21 03:34:47;;;;;;;0.47;0.40;;;;;;;3.77;77.05;96589.63;6202134;28;20251;-71
2022/02/21 03:37:49;;;;;;;0.60;0.40;;;;;;;3.77;77.40;96591.41;6203647;28;20369;-70
2022/02/21 03:40:52;;;;;;;0.70;0.30;;;;;;;3.74;77.39;96587.22;6208546;28;20265;-70
2022/02/21 03:43:54;;;;;;;0.50;0.40;;;;;;;3.73;77.37;96585.56;6224381;28;20253;-71
2022/02/21 03:47:01;;;;;;;0.73;0.37;;;;;;;3.70;77.63;96577.94;6225097;28;20337;-70
2022/02/21 03:50:05;;;;;;;0.40;0.33;;;;;;;3.68;77.71;96577.25;6224164;28;20227;-70
2022/02/21 03:53:07;;;;;;;0.60;0.40;;;;;;;3.63;77.72;96582.78;6226452;28;20713;-70
2022/02/21 03:56:09;;;;;;;0.50;0.40;;;;;;;3.61;77.94;96589.88;6207893;28;20244;-70
2022/02/21 03:59:11;;;;;;;0.50;0.33;;;;;;;3.62;78.46;96591.53;6224046;28;20265;-71
2022/02/21 04:02:13;;;;;;;0.30;0.27;;;;;;;3.64;78.21;96589.66;6223613;28;20621;-70
2022/02/21 04:05:15;;;;;;;0.47;0.40;;;;;;;3.65;78.68;96572.22;6208987;28;20639;-71
2022/02/21 04:08:17;;;;;;;0.30;0.30;;;;;;;3.65;77.83;96570.47;6211720;28;20231;-70
2022/02/21 04:11:19;;;;;;;0.90;0.30;;;;;;;3.65;78.05;96569.63;6223248;28;20710;-71
2022/02/21 04:14:21;;;;;;;1.47;0.60;;;;;;;3.68;78.34;96561.59;6223967;28;20234;-70
2022/02/21 04:17:23;;;;;;;1.00;0.40;;;;;;;3.69;77.69;96550.22;6207742;28;20609;-70
2022/02/21 04:20:30;;;;;;;3.73;0.83;;;;;;;3.68;78.12;96543.34;6229557;28;20254;-70
2022/02/21 04:23:32;;;;;;;0.73;0.70;;;;;;;3.66;77.86;96525.16;6228759;28;20261;-71
2022/02/21 04:26:34;;;;;;;2.00;1.50;;;;;;;3.65;77.84;96523.50;6229863;28;20659;-71
2022/02/21 04:29:38;;;;;;;2.37;2.03;;;;;;;3.63;78.00;96529.75;6228937;28;20238;-70
2022/02/21 04:32:43;;;;;;;2.43;1.57;;;;;;;3.61;77.96;96527.25;6206200;28;20262;-71
2022/02/21 04:35:45;;;;;;;1.67;1.10;;;;;;;3.62;78.41;96517.66;6201044;28;20225;-70
2022/02/21 04:38:47;;;;;;;1.50;0.80;;;;;;;3.62;78.00;96515.88;6205397;28;20312;-70
2022/02/21 04:41:49;;;;;;;1.47;1.10;;;;;;;3.60;78.21;96509.09;6224003;28;20231;-71
2022/02/21 04:44:51;;;;;;;1.63;1.40;;;;;;;3.59;78.46;96497.03;6230342;28;20392;-70
2022/02/21 04:47:53;;;;;;;1.70;1.30;;;;;;;3.56;78.58;96481.59;6227583;28;20288;-71
2022/02/21 04:50:56;;;;;;;1.10;0.87;;;;;;;3.55;78.45;96469.50;6227701;28;20284;-71
2022/02/21 04:53:58;;;;;;;1.63;1.40;;;;;;;3.56;78.46;96458.94;6229274;28;20241;-71
2022/02/21 04:57:00;;;;;;;1.03;0.93;;;;;;;3.55;78.78;96448.63;6230221;28;20786;-70
2022/02/21 05:00:08;;;;;;;1.20;0.87;;;;;;;3.56;78.66;96440.69;6227564;28;20226;-71
2022/02/21 05:03:10;;;;;;;0.87;0.63;;;;;;;3.53;78.68;96440.91;6229374;28;20214;-71
2022/02/21 05:06:14;;;;;;;0.63;0.50;;;;;;;3.55;78.80;96436.41;6228763;28;20208;-71
2022/02/21 05:09:16;;;;;;;0.40;0.30;;;;;;;3.58;78.31;96432.75;6223742;28;20226;-70
2022/02/21 05:12:18;;;;;;;0.50;0.40;;;;;;;3.58;78.96;96425.75;6229414;28;20635;-71
2022/02/21 05:15:20;;;;;;;0.30;0.30;;;;;;;3.63;78.75;96414.97;6228824;28;20234;-71
2022/02/21 05:18:22;;;;;;;1.60;0.33;;;;;;;3.62;78.26;96402.88;6227337;28;20238;-70
2022/02/21 05:21:24;;;;;;;0.30;0.30;;;;;;;3.65;77.88;96397.44;6226395;28;20230;-71
2022/02/21 05:24:26;;;;;;;1.57;0.40;;;;;;;3.66;77.93;96412.16;6204605;28;20285;-70
2022/02/21 05:27:28;;;;;;;0.40;0.40;;;;;;;3.66;77.89;96406.94;6227749;28;20706;-70
2022/02/21 05:30:30;;;;;;;0.63;0.40;;;;;;;3.65;78.26;96403.50;6228569;28;20566;-71
2022/02/21 05:33:52;;;;;;;0.67;0.37;;;;;;;3.64;77.83;96390.56;6226383;28;20626;-70
2022/02/21 05:36:53;;;;;;;0.30;0.30;;;;;;;3.64;77.89;96395.78;6217569;28;20239;-71
2022/02/21 05:39:55;;;;;;;0.63;0.30;;;;;;;3.63;78.07;96388.91;6215497;28;20305;-70
2022/02/21 05:42:58;;;;;;;0.53;0.43;;;;;;;3.61;78.13;96385.56;6225097;28;20246;-67
2022/02/21 05:46:00;;;;;;;0.43;0.40;;;;;;;3.66;77.86;96378.25;6227358;28;20232;-68
2022/02/21 05:49:02;;;;;;;0.40;0.40;;;;;;;3.66;78.13;96388.69;6227673;28;20741;-68
2022/02/21 05:52:04;;;;;;;0.40;0.33;;;;;;;3.64;78.01;96380.13;6227308;28;20237;-68
2022/02/21 05:55:06;;;;;;;0.87;0.50;;;;;;;3.61;78.08;96382.97;6227447;28;20311;-68
2022/02/21 05:58:08;;;;;;;0.40;0.40;;;;;;;3.61;78.53;96381.19;6227369;28;20242;-68
2022/02/21 06:01:11;;;;;;;0.77;0.60;;;;;;;3.58;78.09;96381.44;6227618;28;20738;-68
2022/02/21 06:04:16;;;;;;;0.33;0.23;;;;;;;3.59;78.19;96387.47;6228116;28;20270;-68
2022/02/21 06:07:18;;;;;;;1.13;0.57;;;;;;;3.59;78.20;96379.66;6221848;28;20231;-68
2022/02/21 06:10:20;;;;;;;0.40;0.40;;;;;;;3.61;78.14;96375.13;6211238;28;20609;-68
2022/02/21 06:13:22;;;;;;;1.43;0.40;;;;;;;3.62;78.34;96379.41;6225317;28;20780;-68
2022/02/21 06:16:24;;;;;;;0.37;0.37;;;;;;;3.65;78.32;96379.19;6227339;28;20756;-68
2022/02/21 06:19:26;;;;;;;0.77;0.50;;;;;;;3.65;78.13;96380.03;6226852;28;20238;-68
2022/02/21 06:22:29;;;;;;;0.67;0.60;;;;;;;3.68;78.34;96376.38;6225700;28;20266;-67
2022/02/21 06:25:31;;;;;;;1.50;0.43;;;;;;;3.76;78.15;96386.22;6226963;28;20320;-68
2022/02/21 06:28:33;;;;;;;0.73;0.30;;;;;;;3.81;77.93;96376.25;6226398;28;20792;-68
2022/02/21 06:31:35;;;;;;;1.00;0.50;;;;;;;3.93;77.33;96375.34;6222605;28;20239;-68
2022/02/21 06:34:38;;;;;;;0.23;0.23;;;;;;;4.03;76.85;96381.56;6203198;28;20236;-68
2022/02/21 06:37:46;;;;;;;0.53;0.43;;;;;;;4.09;76.91;96373.28;6207104;28;20726;-68
2022/02/21 06:40:48;;;;;;;0.40;0.40;;;;;;;4.18;76.71;96371.75;6225393;28;20231;-68
2022/02/21 06:43:50;;;;;;;0.53;0.43;;;;;;;4.29;76.19;96363.94;6225702;28;20540;-68
2022/02/21 06:46:52;;;;;;;0.63;0.30;;;;;;;4.40;76.04;96353.47;6230373;28;20736;-68
2022/02/21 06:49:55;;;;;;;1.37;0.50;;;;;;;4.53;75.41;96338.53;6227899;28;20246;-68
2022/02/21 06:52:57;;;;;;;0.50;0.40;;;;;;;4.69;73.67;96349.44;6228432;28;20232;-69
2022/02/21 06:55:59;;;;;;;0.67;0.40;;;;;;;5.14;71.08;96334.53;6228768;28;20237;-68
2022/02/21 06:59:01;;;;;;;0.50;0.30;;;;;;;5.78;67.92;96338.94;6226796;28;20239;-68
2022/02/21 07:02:03;;;;;;;0.20;0.20;;;;;;;6.28;64.89;96312.00;6226485;28;20226;-68
2022/02/21 07:05:06;;;;;;;0.80;0.40;;;;;;;6.62;64.25;96296.81;6225481;28;20739;-68
2022/02/21 07:08:09;;;;;;;1.37;0.53;;;;;;;6.85;62.17;96284.31;6213734;28;20328;-67
2022/02/21 07:11:11;;;;;;;0.63;0.40;;;;;;;7.04;61.32;96284.34;6226982;28;20261;-68
2022/02/21 07:14:13;;;;;;;0.67;0.40;;;;;;;7.35;59.44;96285.09;6225956;28;20726;-68
2022/02/21 07:17:16;;;;;;;0.87;0.50;;;;;;;7.60;58.40;96281.06;6226348;28;20310;-68
2022/02/21 07:20:18;;;;;;;0.40;0.40;;;;;;;7.73;57.70;96283.41;6225991;28;20324;-67
2022/02/21 07:23:20;;;;;;;0.30;0.30;;;;;;;7.97;56.54;96273.28;6225992;28;20332;-68
2022/02/21 07:26:22;;;;;;;1.30;0.40;;;;;;;8.11;56.40;96283.34;6225729;28;20227;-69
2022/02/21 07:29:24;;;;;;;0.40;0.30;;;;;;;8.45;56.74;96288.13;6224029;28;20240;-68
2022/02/21 07:32:26;;;;;;;0.70;0.50;;;;;;;8.71;55.42;96268.06;6218362;28;20762;-68
2022/02/21 07:35:28;;;;;;;1.23;0.30;;;;;;;8.86;55.35;96250.81;6214380;28;20716;-68
2022/02/21 07:38:30;;;;;;;0.17;0.10;;;;;;;8.94;56.52;96238.72;6211050;28;20281;-68
2022/02/21 07:41:32;;;;;;;0.40;0.40;;;;;;;9.03;55.92;96246.56;6221066;28;20728;-68
2022/02/21 07:44:35;;;;;;;0.30;0.30;;;;;;;9.13;55.51;96228.88;6226018;28;20226;-67
2022/02/21 07:47:47;;;;;;;1.00;0.40;;;;;;;9.29;53.87;96224.75;6223544;28;20233;-69
2022/02/21 07:50:54;;;;;;;0.87;0.20;;;;;;;9.42;54.15;96210.22;6225452;28;20797;-67
2022/02/21 07:53:56;;;;;;;0.30;0.30;;;;;;;9.52;53.26;96195.16;6227339;28;20747;-68
2022/02/21 07:57:18;;;;;;;1.60;0.50;;;;;;;9.60;54.09;96186.50;6230107;28;20231;-68
2022/02/21 08:00:20;;;;;;;0.20;0.20;;;;;;;9.77;53.01;96177.75;6229128;28;20215;-68
2022/02/21 08:03:23;;;;;;;0.40;0.30;;;;;;;9.84;52.91;96178.75;6228713;28;20234;-70
2022/02/21 08:06:25;;;;;;;0.33;0.20;;;;;;;9.86;53.67;96161.00;6231863;28;20232;-68
2022/02/21 08:09:27;;;;;;;0.30;0.30;;;;;;;9.90;53.52;96162.31;6207008;28;20241;-68
2022/02/21 08:12:31;;;;;;;0.77;0.30;;;;;;;9.95;53.38;96173.22;6223777;28;20224;-68
2022/02/21 08:15:33;;;;;;;0.33;0.30;;;;;;;9.91;54.75;96174.53;6228738;28;20297;-68
2022/02/21 08:18:35;;;;;;;1.00;0.50;;;;;;;9.85;55.79;96174.31;6230144;28;20286;-68
2022/02/21 08:21:38;;;;;;;0.30;0.20;;;;;;;9.85;56.07;96179.59;6213232;28;20720;-69
2022/02/21 08:24:40;;;;;;;0.77;0.50;;;;;;;9.84;56.34;96172.66;6230299;28;20219;-68
2022/02/21 08:27:43;;;;;;;0.30;0.30;;;;;;;9.88;56.10;96172.19;6231373;28;20782;-68
2022/02/21 08:30:46;;;;;;;0.50;0.37;;;;;;;9.94;55.80;96158.41;6229121;28;20236;-68
2022/02/21 08:33:48;;;;;;;0.37;0.30;;;;;;;10.00;54.84;96151.66;6208423;28;20688;-68
2022/02/21 08:36:50;;;;;;;0.30;0.30;;;;;;;10.07;55.09;96163.25;6222437;28;20723;-67
2022/02/21 08:39:52;;;;;;;1.53;0.50;;;;;;;10.14;54.49;96169.53;6220091;28;20219;-68
2022/02/21 08:42:54;;;;;;;2.33;0.40;;;;;;;10.17;55.14;96161.31;6233528;28;20223;-68
2022/02/21 08:46:00;;;;;;;3.00;0.90;;;;;;;10.16;55.93;96164.94;6210965;28;20222;-68
2022/02/21 08:49:22;;;;;;;0.90;0.60;;;;;;;10.13;55.81;96153.88;6227785;28;20712;-68
2022/02/21 08:52:24;;;;;;;0.73;0.50;;;;;;;10.06;56.63;96152.88;6229559;28;20236;-67
2022/02/21 08:55:26;;;;;;;0.97;0.57;;;;;;;9.98;56.37;96158.94;6227841;28;20236;-69
2022/02/21 08:58:28;;;;;;;0.57;0.40;;;;;;;9.94;55.56;96158.41;6228464;28;20708;-68
2022/02/21 09:01:30;;;;;;;2.43;0.57;;;;;;;9.97;55.24;96162.53;6228190;28;20769;-68
2022/02/21 09:04:32;;;;;;;2.10;0.40;;;;;;;10.01;54.56;96182.31;6226145;28;20270;-68
2022/02/21 09:07:34;;;;;;;0.73;0.40;;;;;;;10.05;54.07;96180.19;6220247;28;20608;-68
2022/02/21 09:10:36;;;;;;;0.50;0.40;;;;;;;10.08;53.79;96191.25;6219641;28;20318;-69
2022/02/21 09:13:38;;;;;;;0.90;0.60;;;;;;;10.13;55.07;96194.25;6228936;28;20227;-69
2022/02/21 09:16:40;;;;;;;0.60;0.43;;;;;;;10.20;51.76;96224.28;6229553;28;20246;-69
2022/02/21 09:19:44;;;;;;;0.30;0.30;;;;;;;10.45;49.60;96225.25;6227299;28;20711;-68
2022/02/21 09:22:46;;;;;;;0.20;0.20;;;;;;;10.63;48.40;96241.81;6228426;28;20227;-68
2022/02/21 09:25:48;;;;;;;0.60;0.50;;;;;;;10.76;48.23;96272.22;6228393;28;20235;-68
2022/02/21 09:28:50;;;;;;;1.70;0.40;;;;;;;10.73;48.29;96297.09;6228482;28;20237;-68
2022/02/21 09:31:55;;;;;;;1.83;0.50;;;;;;;10.63;49.52;96352.63;6223541;28;20725;-68
2022/02/21 09:34:57;;;;;;;1.47;0.50;;;;;;;10.38;50.44;96386.91;6212965;28;20251;-69
2022/02/21 09:38:00;;;;;;;0.27;0.20;;;;;;;9.94;51.52;96410.56;6206416;28;20289;-69
2022/02/21 09:41:04;;;;;;;0.57;0.30;;;;;;;9.58;51.23;96407.88;6214268;28;20282;-68
2022/02/21 09:44:09;;;;;;;0.27;0.20;;;;;;;9.41;52.09;96427.13;6227940;28;20235;-69
2022/02/21 09:47:15;;;;;;;0.20;0.20;;;;;;;9.28;51.41;96445.06;6225889;28;20319;-68
2022/02/21 09:50:18;;;;;;;1.33;0.30;;;;;;;9.09;51.04;96467.00;6228513;28;20223;-68
2022/02/21 09:53:20;;;;;;;1.03;0.30;;;;;;;8.74;51.37;96495.78;6227326;28;20727;-68
2022/02/21 09:56:22;;;;;;;0.33;0.33;;;;;;;8.49;51.94;96544.50;6226273;28;20710;-68
2022/02/21 09:59:24;;;;;;;0.57;0.43;;;;;;;8.19;51.30;96528.81;6227481;28;20226;-67
2022/02/21 10:02:29;;;;;;;1.40;0.63;;;;;;;7.99;52.18;96549.81;6209529;28;20324;-68
2022/02/21 10:05:32;;;;;;;1.27;0.53;;;;;;;7.77;52.72;96574.50;6226894;28;20708;-68
2022/02/21 10:08:35;;;;;;;0.73;0.33;;;;;;;7.69;56.06;96570.84;6224659;28;20242;-68
2022/02/21 10:11:59;;;;;;;4.13;0.50;;;;;;;7.55;54.34;96584.34;6226907;28;20831;-68
2022/02/21 10:15:29;;;;;;;2.20;0.37;;;;;;;7.80;55.07;96589.16;6226185;28;20360;-68
2022/02/21 10:18:31;;;;;;;1.60;0.60;;;;;;;8.01;53.32;96607.47;6225247;28;20218;-68
2022/02/21 10:21:52;;;;;;;2.30;0.60;;;;;;;8.24;53.05;96597.59;6227962;28;20233;-68
2022/02/21 10:24:56;;;;;;;2.70;0.57;;;;;;;8.18;52.68;96601.59;6227548;28;20230;-68
2022/02/21 10:27:59;;;;;;;1.73;0.60;;;;;;;8.20;50.93;96604.88;6227659;28;20718;-68
2022/02/21 10:31:15;;;;;;;1.97;0.63;;;;;;;8.42;51.74;96582.84;6226380;28;20313;-68
2022/02/21 10:34:17;;;;;;;1.07;0.53;;;;;;;8.58;50.37;96580.50;6180570;28;20732;-68
2022/02/21 10:37:26;;;;;;;3.00;0.67;;;;;;;8.57;48.61;96591.16;6214657;28;20697;-68
2022/02/21 10:40:37;;;;;;;1.10;0.50;;;;;;;8.68;46.90;96596.28;6222933;28;20225;-68
2022/02/21 10:43:40;;;;;;;2.40;0.60;;;;;;;8.93;46.80;96582.56;6227074;28;20238;-68
2022/02/21 10:46:57;;;;;;;0.93;0.47;;;;;;;9.16;47.04;96569.94;6208313;28;20246;-68
2022/02/21 10:50:19;;;;;;;0.87;0.47;;;;;;;9.24;45.65;96581.41;6226172;28;20237;-68
2022/02/21 10:53:23;;;;;;;1.73;0.40;;;;;;;9.58;45.07;96555.38;6226853;28;20279;-68
2022/02/21 10:56:40;;;;;;;0.57;0.43;;;;;;;8.76;44.17;96588.53;6225253;28;20564;-68
2022/02/21 10:59:43;;;;;;;0.53;0.37;;;;;;;8.47;45.55;96585.91;6225285;28;20234;-68
2022/02/21 11:02:45;;;;;;;1.00;0.40;;;;;;;8.29;45.93;96587.47;6225427;28;20264;-68
2022/02/21 11:05:48;;;;;;;0.70;0.37;;;;;;;8.05;47.57;96593.13;6226079;28;20307;-68
2022/02/21 11:08:53;;;;;;;2.80;0.40;;;;;;;7.74;49.61;96602.81;6206419;28;20251;-68
2022/02/21 11:12:02;;;;;;;2.40;0.50;;;;;;;7.70;51.27;96618.00;6222851;28;20292;-68
2022/02/21 11:15:07;;;;;;;0.50;0.40;;;;;;;7.92;50.91;96648.50;6225712;28;20270;-68
2022/02/21 11:18:17;;;;;;;1.27;0.37;;;;;;;8.25;51.74;96650.00;6226559;28;20223;-68
2022/02/21 11:21:20;;;;;;;1.17;0.47;;;;;;;8.35;50.55;96634.31;6225786;28;20739;-68
2022/02/21 11:24:32;;;;;;;0.93;0.37;;;;;;;8.79;51.01;96618.00;6226695;28;20227;-68
2022/02/21 11:27:48;;;;;;;0.20;0.20;;;;;;;9.16;49.71;96602.34;6226701;28;20255;-68
2022/02/21 11:30:54;;;;;;;0.43;0.40;;;;;;;9.23;48.80;96582.38;6230779;28;20242;-68
2022/02/21 11:34:01;;;;;;;0.80;0.33;;;;;;;9.11;48.89;96614.25;6215718;28;20703;-68
2022/02/21 11:37:23;;;;;;;1.07;0.40;;;;;;;9.04;48.62;96581.59;6186980;28;20758;-67
2022/02/21 11:40:25;;;;;;;0.40;0.30;;;;;;;9.50;47.95;96594.78;6209790;28;20242;-68
2022/02/21 11:43:29;;;;;;;0.73;0.50;;;;;;;9.28;45.48;96587.25;6230722;28;20238;-68
2022/02/21 11:46:32;;;;;;;1.03;0.40;;;;;;;9.25;45.41;96595.41;6230562;28;20241;-67
2022/02/21 11:49:36;;;;;;;0.30;0.30;;;;;;;9.17;46.59;96584.75;6230067;28;20292;-69
2022/02/21 11:52:38;;;;;;;1.23;0.43;;;;;;;9.27;45.11;96580.31;6229692;28;20330;-67
2022/02/21 11:55:43;;;;;;;2.27;0.77;;;;;;;9.20;44.89;96551.06;6230881;28;20318;-68
2022/02/21 11:58:46;;;;;;;1.23;0.60;;;;;;;9.01;43.39;96566.91;6228782;28;20235;-68
2022/02/21 12:02:17;;;;;;;0.70;0.40;;;;;;;8.89;44.10;96553.06;6229291;28;20223;-68
2022/02/21 12:05:22;;;;;;;2.10;0.53;;;;;;;8.64;44.28;96552.81;6229594;28;20592;-68
2022/02/21 12:08:44;;;;;;;3.00;0.60;;;;;;;8.60;44.05;96560.16;6220808;28;20230;-68
2022/02/21 12:11:46;;;;;;;1.77;0.50;;;;;;;8.22;42.91;96542.53;6227500;28;20241;-68
2022/02/21 12:15:13;;;;;;;1.63;0.57;;;;;;;7.92;43.71;96548.69;6227967;28;20285;-67
2022/02/21 12:18:18;;;;;;;2.07;0.67;;;;;;;7.76;44.04;96548.38;6229439;28;20380;-67
2022/02/21 12:21:26;;;;;;;3.80;0.93;;;;;;;7.76;43.92;96522.94;6229909;28;20231;-67
2022/02/21 12:24:28;;;;;;;1.27;0.50;;;;;;;7.78;44.70;96560.41;6229371;28;20262;-67
2022/02/21 12:27:30;;;;;;;1.43;0.60;;;;;;;7.58;43.82;96542.09;6230239;28;20216;-68
2022/02/21 12:30:37;;;;;;;2.23;0.70;;;;;;;7.66;43.80;96543.09;6229686;28;20250;-68
2022/02/21 12:33:45;;;;;;;2.80;0.80;;;;;;;7.69;43.93;96542.81;6225704;28;20250;-68
2022/02/21 12:36:50;;;;;;;1.30;0.53;;;;;;;7.76;43.25;96532.63;6216253;28;20331;-67
2022/02/21 12:39:52;;;;;;;3.13;0.77;;;;;;;7.86;43.62;96524.75;6213471;28;20490;-68
2022/02/21 12:42:57;;;;;;;4.10;0.60;;;;;;;7.85;43.36;96529.19;6228273;28;20227;-68
2022/02/21 12:45:59;;;;;;;2.00;0.60;;;;;;;7.85;42.12;96534.44;6227747;28;20636;-68
2022/02/21 12:49:07;;;;;;;2.77;0.93;;;;;;;7.64;43.10;96515.28;6229133;28;20234;-68
2022/02/21 12:52:11;;;;;;;1.20;0.50;;;;;;;7.79;43.07;96501.66;6232979;28;20233;-68
2022/02/21 12:55:16;;;;;;;1.97;0.93;;;;;;;7.69;41.55;96506.03;6229340;28;20271;-69
2022/02/21 12:58:18;;;;;;;1.93;0.73;;;;;;;7.84;42.48;96489.91;6229452;28;20234;-69
2022/02/21 13:01:21;;;;;;;1.53;0.90;;;;;;;8.25;41.56;96504.63;6211028;28;20235;-68
2022/02/21 13:04:24;;;;;;;2.37;1.07;;;;;;;8.26;41.60;96485.25;6228776;28;20226;-68
2022/02/21 13:07:28;;;;;;;4.87;1.03;;;;;;;8.28;41.54;96484.16;6222718;28;20287;-68
2022/02/21 13:10:40;;;;;;;1.67;0.80;;;;;;;8.12;42.10;96478.59;6212267;28;20228;-69
2022/02/21 13:13:44;;;;;;;1.90;0.83;;;;;;;8.17;42.16;96476.41;6227454;28;20458;-69
2022/02/21 13:16:52;;;;;;;2.33;1.00;;;;;;;8.12;40.78;96489.94;6226944;28;20329;-69
2022/02/21 13:19:56;;;;;;;0.87;0.73;;;;;;;8.23;40.92;96480.28;6229283;28;20251;-69
2022/02/21 13:23:01;;;;;;;3.43;0.90;;;;;;;8.76;40.34;96507.81;6226495;28;20232;-68
2022/02/21 13:26:03;;;;;;;3.03;0.90;;;;;;;9.78;37.43;96465.75;6226551;28;20261;-69
2022/02/21 13:29:05;;;;;;;3.07;0.60;;;;;;;10.54;36.32;96447.69;6228082;28;20258;-69
2022/02/21 13:32:32;;;;;;;1.50;0.80;;;;;;;12.06;32.70;96480.38;6217344;28;20707;-68
2022/02/21 13:35:35;;;;;;;1.90;0.80;;;;;;;13.86;31.13;96461.47;6204124;28;20259;-68
2022/02/21 13:38:38;;;;;;;1.70;0.90;;;;;;;14.97;29.57;96456.56;6214308;28;20219;-68
2022/02/21 13:41:45;;;;;;;5.03;1.00;;;;;;;16.91;26.29;96455.06;6228624;28;20255;-68
2022/02/21 13:45:14;;;;;;;1.93;0.90;;;;;;;14.34;28.51;96443.63;6228018;28;20273;-68
2022/02/21 13:48:19;;;;;;;2.93;0.87;;;;;;;15.86;27.55;96430.84;6227190;28;20220;-68
2022/02/21 13:51:21;;;;;;;1.63;0.63;;;;;;;14.50;28.12;96464.75;6227151;28;20319;-67
2022/02/21 13:54:29;;;;;;;3.80;1.03;;;;;;;11.95;32.71;96435.72;6226575;28;20746;-67
2022/02/21 13:57:31;;;;;;;3.20;1.03;;;;;;;11.35;33.44;96438.47;6226480;28;20251;-67
2022/02/21 14:00:38;;;;;;;3.07;1.00;;;;;;;9.73;36.00;96389.78;6227362;28;20257;-68
2022/02/21 14:03:47;;;;;;;1.07;0.60;;;;;;;8.93;37.49;96422.06;6227003;28;20235;-67
2022/02/21 14:06:49;;;;;;;2.33;0.97;;;;;;;9.34;36.94;96415.53;6224942;28;20219;-67
2022/02/21 14:10:11;;;;;;;2.20;1.00;;;;;;;10.75;34.87;96392.78;6214354;28;20219;-67
2022/02/21 14:13:13;;;;;;;3.10;0.90;;;;;;;10.01;35.77;96427.44;6226777;28;20290;-67
2022/02/21 14:16:16;;;;;;;2.30;0.80;;;;;;;9.32;36.90;96392.94;6227031;28;20265;-68
2022/02/21 14:19:20;;;;;;;3.93;0.97;;;;;;;8.93;37.45;96387.03;6225135;28;20256;-67
2022/02/21 14:22:30;;;;;;;1.63;0.60;;;;;;;8.77;38.21;96414.78;6227256;28;20289;-67
2022/02/21 14:25:32;;;;;;;2.40;1.00;;;;;;;8.56;39.11;96413.31;6227387;28;20229;-67
2022/02/21 14:28:35;;;;;;;1.40;0.87;;;;;;;8.23;39.68;96438.22;6225951;28;20724;-69
2022/02/21 14:31:37;;;;;;;2.00;0.70;;;;;;;7.80;40.12;96431.56;6222568;28;20224;-67
2022/02/21 14:34:39;;;;;;;4.80;0.93;;;;;;;7.54;40.97;96433.06;6213136;28;20792;-68
2022/02/21 14:37:42;;;;;;;2.37;1.00;;;;;;;7.51;40.76;96433.31;6208418;28;20667;-68